sensor_id;sensor_type;location;lat;lon;timestamp;temperature;humidity
80676;SHT30;70041;46.088;18.268;2023-12-20T00:01:16;3.00;89.15
80676;SHT30;70041;46.088;18.268;2023-12-20T00:03:42;3.05;89.06
80676;SHT30;70041;46.088;18.268;2023-12-20T00:06:07;3.00;88.52
80676;SHT30;70041;46.088;18.268;2023-12-20T00:08:32;3.02;89.02
80676;SHT30;70041;46.088;18.268;2023-12-20T00:10:58;3.05;89.35
80676;SHT30;70041;46.088;18.268;2023-12-20T00:13:23;3.03;89.55
80676;SHT30;70041;46.088;18.268;2023-12-20T00:15:49;3.00;89.81
80676;SHT30;70041;46.088;18.268;2023-12-20T00:18:14;3.07;89.70
80676;SHT30;70041;46.088;18.268;2023-12-20T00:20:39;3.07;89.31
80676;SHT30;70041;46.088;18.268;2023-12-20T00:23:05;3.05;89.46
80676;SHT30;70041;46.088;18.268;2023-12-20T00:25:30;3.05;89.22
80676;SHT30;70041;46.088;18.268;2023-12-20T00:27:56;3.00;89.18
80676;SHT30;70041;46.088;18.268;2023-12-20T00:30:21;2.93;89.18
80676;SHT30;70041;46.088;18.268;2023-12-20T00:32:47;2.96;89.46
80676;SHT30;70041;46.088;18.268;2023-12-20T00:35:13;3.02;89.42
80676;SHT30;70041;46.088;18.268;2023-12-20T00:37:39;3.16;89.10
80676;SHT30;70041;46.088;18.268;2023-12-20T00:40:05;3.19;88.90
80676;SHT30;70041;46.088;18.268;2023-12-20T00:42:30;3.34;89.98
80676;SHT30;70041;46.088;18.268;2023-12-20T00:44:56;3.44;89.38
80676;SHT30;70041;46.088;18.268;2023-12-20T00:47:21;3.41;87.63
80676;SHT30;70041;46.088;18.268;2023-12-20T00:49:47;3.29;87.85
80676;SHT30;70041;46.088;18.268;2023-12-20T00:52:12;3.20;88.18
80676;SHT30;70041;46.088;18.268;2023-12-20T00:54:38;3.19;88.71
80676;SHT30;70041;46.088;18.268;2023-12-20T00:57:04;3.19;88.66
80676;SHT30;70041;46.088;18.268;2023-12-20T00:59:29;3.16;88.42
80676;SHT30;70041;46.088;18.268;2023-12-20T01:01:55;3.12;88.78
80676;SHT30;70041;46.088;18.268;2023-12-20T01:04:20;3.12;89.04
80676;SHT30;70041;46.088;18.268;2023-12-20T01:06:45;3.10;89.05
80676;SHT30;70041;46.088;18.268;2023-12-20T01:09:11;3.10;89.04
80676;SHT30;70041;46.088;18.268;2023-12-20T01:11:36;3.10;89.25
80676;SHT30;70041;46.088;18.268;2023-12-20T01:14:02;3.13;89.22
80676;SHT30;70041;46.088;18.268;2023-12-20T01:16:27;3.15;89.31
80676;SHT30;70041;46.088;18.268;2023-12-20T01:18:52;3.12;89.42
80676;SHT30;70041;46.088;18.268;2023-12-20T01:21:18;3.07;89.42
80676;SHT30;70041;46.088;18.268;2023-12-20T01:23:43;3.05;89.69
80676;SHT30;70041;46.088;18.268;2023-12-20T01:26:09;3.05;89.52
80676;SHT30;70041;46.088;18.268;2023-12-20T01:28:34;3.07;89.70
80676;SHT30;70041;46.088;18.268;2023-12-20T01:30:59;3.09;89.53
80676;SHT30;70041;46.088;18.268;2023-12-20T01:33:25;3.12;89.34
80676;SHT30;70041;46.088;18.268;2023-12-20T01:35:50;3.05;89.23
80676;SHT30;70041;46.088;18.268;2023-12-20T01:38:16;3.05;89.55
80676;SHT30;70041;46.088;18.268;2023-12-20T01:40:44;3.06;89.62
80676;SHT30;70041;46.088;18.268;2023-12-20T01:43:09;3.09;89.64
80676;SHT30;70041;46.088;18.268;2023-12-20T01:45:36;3.06;89.73
80676;SHT30;70041;46.088;18.268;2023-12-20T01:48:02;3.07;89.83
80676;SHT30;70041;46.088;18.268;2023-12-20T01:50:29;3.15;89.56
80676;SHT30;70041;46.088;18.268;2023-12-20T01:52:56;3.10;89.61
80676;SHT30;70041;46.088;18.268;2023-12-20T01:55:23;3.07;89.77
80676;SHT30;70041;46.088;18.268;2023-12-20T01:57:50;3.03;89.94
80676;SHT30;70041;46.088;18.268;2023-12-20T02:00:16;3.07;89.74
80676;SHT30;70041;46.088;18.268;2023-12-20T02:02:43;3.07;89.59
80676;SHT30;70041;46.088;18.268;2023-12-20T02:05:09;3.05;89.79
80676;SHT30;70041;46.088;18.268;2023-12-20T02:07:36;3.00;89.67
80676;SHT30;70041;46.088;18.268;2023-12-20T02:10:01;2.99;89.56
80676;SHT30;70041;46.088;18.268;2023-12-20T02:12:27;2.93;89.52
80676;SHT30;70041;46.088;18.268;2023-12-20T02:14:52;2.93;89.33
80676;SHT30;70041;46.088;18.268;2023-12-20T02:17:19;2.92;89.45
80676;SHT30;70041;46.088;18.268;2023-12-20T02:19:45;2.89;89.45
80676;SHT30;70041;46.088;18.268;2023-12-20T02:22:11;2.88;89.54
80676;SHT30;70041;46.088;18.268;2023-12-20T02:24:37;2.85;89.21
80676;SHT30;70041;46.088;18.268;2023-12-20T02:27:02;2.82;89.46
80676;SHT30;70041;46.088;18.268;2023-12-20T02:29:28;2.76;89.39
80676;SHT30;70041;46.088;18.268;2023-12-20T02:31:53;2.78;89.23
80676;SHT30;70041;46.088;18.268;2023-12-20T02:34:19;2.78;88.99
80676;SHT30;70041;46.088;18.268;2023-12-20T02:36:44;2.75;89.23
80676;SHT30;70041;46.088;18.268;2023-12-20T02:39:09;2.69;89.74
80676;SHT30;70041;46.088;18.268;2023-12-20T02:41:35;2.71;89.82
80676;SHT30;70041;46.088;18.268;2023-12-20T02:44:01;2.69;89.69
80676;SHT30;70041;46.088;18.268;2023-12-20T02:46:27;2.66;89.78
80676;SHT30;70041;46.088;18.268;2023-12-20T02:48:52;2.68;89.86
80676;SHT30;70041;46.088;18.268;2023-12-20T02:51:18;2.62;89.79
80676;SHT30;70041;46.088;18.268;2023-12-20T02:53:43;2.58;89.72
80676;SHT30;70041;46.088;18.268;2023-12-20T02:56:08;2.59;89.48
80676;SHT30;70041;46.088;18.268;2023-12-20T02:58:34;2.49;89.50
80676;SHT30;70041;46.088;18.268;2023-12-20T03:00:59;2.45;89.61
80676;SHT30;70041;46.088;18.268;2023-12-20T03:03:25;2.51;89.52
80676;SHT30;70041;46.088;18.268;2023-12-20T03:05:50;2.52;89.57
80676;SHT30;70041;46.088;18.268;2023-12-20T03:08:15;2.45;89.79
80676;SHT30;70041;46.088;18.268;2023-12-20T03:10:41;2.37;89.80
80676;SHT30;70041;46.088;18.268;2023-12-20T03:13:06;2.44;90.13
80676;SHT30;70041;46.088;18.268;2023-12-20T03:15:32;2.45;90.09
80676;SHT30;70041;46.088;18.268;2023-12-20T03:17:57;2.45;89.61
80676;SHT30;70041;46.088;18.268;2023-12-20T03:20:24;2.45;89.70
80676;SHT30;70041;46.088;18.268;2023-12-20T03:22:51;2.46;89.68
80676;SHT30;70041;46.088;18.268;2023-12-20T03:25:16;2.51;89.53
80676;SHT30;70041;46.088;18.268;2023-12-20T03:27:42;2.44;89.53
80676;SHT30;70041;46.088;18.268;2023-12-20T03:30:07;2.41;89.73
80676;SHT30;70041;46.088;18.268;2023-12-20T03:32:33;2.52;89.35
80676;SHT30;70041;46.088;18.268;2023-12-20T03:34:58;2.51;89.52
80676;SHT30;70041;46.088;18.268;2023-12-20T03:37:24;2.45;89.99
80676;SHT30;70041;46.088;18.268;2023-12-20T03:39:49;2.37;89.94
80676;SHT30;70041;46.088;18.268;2023-12-20T03:42:15;2.35;89.63
80676;SHT30;70041;46.088;18.268;2023-12-20T03:44:40;2.33;89.75
80676;SHT30;70041;46.088;18.268;2023-12-20T03:47:06;2.25;90.23
80676;SHT30;70041;46.088;18.268;2023-12-20T03:49:31;2.33;89.90
80676;SHT30;70041;46.088;18.268;2023-12-20T03:51:57;2.34;89.34
80676;SHT30;70041;46.088;18.268;2023-12-20T03:54:22;2.27;89.54
80676;SHT30;70041;46.088;18.268;2023-12-20T03:56:47;2.28;88.77
80676;SHT30;70041;46.088;18.268;2023-12-20T03:59:13;2.23;87.66
80676;SHT30;70041;46.088;18.268;2023-12-20T04:01:43;2.13;87.66
80676;SHT30;70041;46.088;18.268;2023-12-20T04:04:09;1.92;88.41
80676;SHT30;70041;46.088;18.268;2023-12-20T04:06:34;1.83;88.92
80676;SHT30;70041;46.088;18.268;2023-12-20T04:09:00;1.74;89.08
80676;SHT30;70041;46.088;18.268;2023-12-20T04:11:25;1.76;89.50
80676;SHT30;70041;46.088;18.268;2023-12-20T04:13:51;1.70;89.90
80676;SHT30;70041;46.088;18.268;2023-12-20T04:16:16;1.69;90.12
80676;SHT30;70041;46.088;18.268;2023-12-20T04:18:41;1.74;89.71
80676;SHT30;70041;46.088;18.268;2023-12-20T04:21:07;1.82;89.67
80676;SHT30;70041;46.088;18.268;2023-12-20T04:23:32;1.79;90.02
80676;SHT30;70041;46.088;18.268;2023-12-20T04:25:58;1.73;90.21
80676;SHT30;70041;46.088;18.268;2023-12-20T04:28:23;1.77;90.48
80676;SHT30;70041;46.088;18.268;2023-12-20T04:30:49;1.80;90.56
80676;SHT30;70041;46.088;18.268;2023-12-20T04:33:14;1.83;90.70
80676;SHT30;70041;46.088;18.268;2023-12-20T04:35:40;1.80;90.80
80676;SHT30;70041;46.088;18.268;2023-12-20T04:38:06;1.64;91.23
80676;SHT30;70041;46.088;18.268;2023-12-20T04:40:31;1.56;91.50
80676;SHT30;70041;46.088;18.268;2023-12-20T04:42:57;1.63;91.22
80676;SHT30;70041;46.088;18.268;2023-12-20T04:45:22;1.70;91.13
80676;SHT30;70041;46.088;18.268;2023-12-20T04:47:50;1.74;90.85
80676;SHT30;70041;46.088;18.268;2023-12-20T04:50:15;1.82;91.18
80676;SHT30;70041;46.088;18.268;2023-12-20T04:52:41;1.87;90.98
80676;SHT30;70041;46.088;18.268;2023-12-20T04:55:07;1.96;91.15
80676;SHT30;70041;46.088;18.268;2023-12-20T04:57:34;1.99;91.35
80676;SHT30;70041;46.088;18.268;2023-12-20T04:59:59;1.96;90.99
80676;SHT30;70041;46.088;18.268;2023-12-20T05:02:25;2.00;90.71
80676;SHT30;70041;46.088;18.268;2023-12-20T05:04:50;2.06;90.80
80676;SHT30;70041;46.088;18.268;2023-12-20T05:07:15;2.04;90.82
80676;SHT30;70041;46.088;18.268;2023-12-20T05:09:41;2.09;90.77
80676;SHT30;70041;46.088;18.268;2023-12-20T05:12:07;2.09;90.95
80676;SHT30;70041;46.088;18.268;2023-12-20T05:14:32;2.03;90.99
80676;SHT30;70041;46.088;18.268;2023-12-20T05:16:58;1.99;90.95
80676;SHT30;70041;46.088;18.268;2023-12-20T05:19:24;2.00;91.17
80676;SHT30;70041;46.088;18.268;2023-12-20T05:21:49;2.00;91.02
80676;SHT30;70041;46.088;18.268;2023-12-20T05:24:15;2.09;88.50
80676;SHT30;70041;46.088;18.268;2023-12-20T05:26:40;1.92;88.02
80676;SHT30;70041;46.088;18.268;2023-12-20T05:29:06;1.87;88.25
80676;SHT30;70041;46.088;18.268;2023-12-20T05:31:31;1.70;88.44
80676;SHT30;70041;46.088;18.268;2023-12-20T05:33:57;1.67;88.88
80676;SHT30;70041;46.088;18.268;2023-12-20T05:36:22;1.60;89.27
80676;SHT30;70041;46.088;18.268;2023-12-20T05:38:48;1.55;89.40
80676;SHT30;70041;46.088;18.268;2023-12-20T05:41:13;1.59;89.90
80676;SHT30;70041;46.088;18.268;2023-12-20T05:43:39;1.62;89.85
80676;SHT30;70041;46.088;18.268;2023-12-20T05:46:04;1.64;89.94
80676;SHT30;70041;46.088;18.268;2023-12-20T05:48:30;1.51;89.76
80676;SHT30;70041;46.088;18.268;2023-12-20T05:50:55;1.45;90.05
80676;SHT30;70041;46.088;18.268;2023-12-20T05:53:21;1.43;90.01
80676;SHT30;70041;46.088;18.268;2023-12-20T05:55:46;1.43;90.14
80676;SHT30;70041;46.088;18.268;2023-12-20T05:58:12;1.39;90.17
80676;SHT30;70041;46.088;18.268;2023-12-20T06:00:37;1.42;89.45
80676;SHT30;70041;46.088;18.268;2023-12-20T06:03:03;1.39;89.13
80676;SHT30;70041;46.088;18.268;2023-12-20T06:05:30;1.34;89.51
80676;SHT30;70041;46.088;18.268;2023-12-20T06:07:55;1.35;90.15
80676;SHT30;70041;46.088;18.268;2023-12-20T06:10:26;1.34;90.63
80676;SHT30;70041;46.088;18.268;2023-12-20T06:12:52;1.39;90.63
80676;SHT30;70041;46.088;18.268;2023-12-20T06:15:17;1.45;89.06
80676;SHT30;70041;46.088;18.268;2023-12-20T06:17:43;1.34;88.91
80676;SHT30;70041;46.088;18.268;2023-12-20T06:20:09;1.39;88.79
80676;SHT30;70041;46.088;18.268;2023-12-20T06:22:35;1.25;88.68
80676;SHT30;70041;46.088;18.268;2023-12-20T06:25:01;1.21;89.15
80676;SHT30;70041;46.088;18.268;2023-12-20T06:27:28;1.08;89.89
80676;SHT30;70041;46.088;18.268;2023-12-20T06:29:53;1.00;88.92
80676;SHT30;70041;46.088;18.268;2023-12-20T06:32:19;0.90;89.28
80676;SHT30;70041;46.088;18.268;2023-12-20T06:34:44;0.68;89.26
80676;SHT30;70041;46.088;18.268;2023-12-20T06:37:10;0.73;89.27
80676;SHT30;70041;46.088;18.268;2023-12-20T06:39:35;0.80;89.45
80676;SHT30;70041;46.088;18.268;2023-12-20T06:42:00;0.83;89.59
80676;SHT30;70041;46.088;18.268;2023-12-20T06:44:26;0.94;89.56
80676;SHT30;70041;46.088;18.268;2023-12-20T06:46:51;0.88;88.96
80676;SHT30;70041;46.088;18.268;2023-12-20T06:49:17;0.83;89.73
80676;SHT30;70041;46.088;18.268;2023-12-20T06:51:43;0.84;90.10
80676;SHT30;70041;46.088;18.268;2023-12-20T06:54:09;0.90;90.01
80676;SHT30;70041;46.088;18.268;2023-12-20T06:56:34;1.00;90.20
80676;SHT30;70041;46.088;18.268;2023-12-20T06:58:59;1.05;90.12
80676;SHT30;70041;46.088;18.268;2023-12-20T07:01:25;1.17;89.23
80676;SHT30;70041;46.088;18.268;2023-12-20T07:03:50;1.31;88.52
80676;SHT30;70041;46.088;18.268;2023-12-20T07:06:16;1.29;88.25
80676;SHT30;70041;46.088;18.268;2023-12-20T07:08:42;1.28;88.65
80676;SHT30;70041;46.088;18.268;2023-12-20T07:11:08;1.35;88.12
80676;SHT30;70041;46.088;18.268;2023-12-20T07:13:33;1.45;87.99
80676;SHT30;70041;46.088;18.268;2023-12-20T07:15:59;1.49;87.87
80676;SHT30;70041;46.088;18.268;2023-12-20T07:18:24;1.62;87.33
80676;SHT30;70041;46.088;18.268;2023-12-20T07:20:50;1.52;88.23
80676;SHT30;70041;46.088;18.268;2023-12-20T07:23:15;1.48;89.00
80676;SHT30;70041;46.088;18.268;2023-12-20T07:25:41;1.51;89.54
80676;SHT30;70041;46.088;18.268;2023-12-20T07:28:06;1.70;88.76
80676;SHT30;70041;46.088;18.268;2023-12-20T07:30:32;1.82;88.43
80676;SHT30;70041;46.088;18.268;2023-12-20T07:32:57;1.83;88.37
80676;SHT30;70041;46.088;18.268;2023-12-20T07:35:25;1.86;87.68
80676;SHT30;70041;46.088;18.268;2023-12-20T07:37:51;1.79;87.87
80676;SHT30;70041;46.088;18.268;2023-12-20T07:40:16;1.80;87.47
80676;SHT30;70041;46.088;18.268;2023-12-20T07:42:42;1.77;87.20
80676;SHT30;70041;46.088;18.268;2023-12-20T07:45:08;1.77;87.72
80676;SHT30;70041;46.088;18.268;2023-12-20T07:47:34;1.86;87.31
80676;SHT30;70041;46.088;18.268;2023-12-20T07:49:59;1.79;87.69
80676;SHT30;70041;46.088;18.268;2023-12-20T07:52:25;1.69;88.55
80676;SHT30;70041;46.088;18.268;2023-12-20T07:54:51;1.74;88.88
80676;SHT30;70041;46.088;18.268;2023-12-20T07:57:17;1.92;87.49
80676;SHT30;70041;46.088;18.268;2023-12-20T07:59:42;1.86;86.84
80676;SHT30;70041;46.088;18.268;2023-12-20T08:02:09;1.86;87.50
80676;SHT30;70041;46.088;18.268;2023-12-20T08:04:35;1.89;87.34
80676;SHT30;70041;46.088;18.268;2023-12-20T08:07:00;1.89;87.62
80676;SHT30;70041;46.088;18.268;2023-12-20T08:09:26;1.84;87.22
80676;SHT30;70041;46.088;18.268;2023-12-20T08:11:51;1.89;87.38
80676;SHT30;70041;46.088;18.268;2023-12-20T08:14:17;1.96;86.55
80676;SHT30;70041;46.088;18.268;2023-12-20T08:16:42;2.03;86.00
80676;SHT30;70041;46.088;18.268;2023-12-20T08:19:08;2.14;85.76
80676;SHT30;70041;46.088;18.268;2023-12-20T08:21:34;2.11;85.53
80676;SHT30;70041;46.088;18.268;2023-12-20T08:23:59;2.11;85.64
80676;SHT30;70041;46.088;18.268;2023-12-20T08:26:26;2.25;86.36
80676;SHT30;70041;46.088;18.268;2023-12-20T08:28:52;2.42;85.45
80676;SHT30;70041;46.088;18.268;2023-12-20T08:31:18;2.44;85.49
80676;SHT30;70041;46.088;18.268;2023-12-20T08:33:44;2.52;85.55
80676;SHT30;70041;46.088;18.268;2023-12-20T08:36:11;2.52;86.06
80676;SHT30;70041;46.088;18.268;2023-12-20T08:38:36;2.45;85.76
80676;SHT30;70041;46.088;18.268;2023-12-20T08:41:02;2.48;86.09
80676;SHT30;70041;46.088;18.268;2023-12-20T08:43:30;2.48;86.05
80676;SHT30;70041;46.088;18.268;2023-12-20T08:45:56;2.51;85.13
80676;SHT30;70041;46.088;18.268;2023-12-20T08:48:22;2.55;85.82
80676;SHT30;70041;46.088;18.268;2023-12-20T08:50:47;2.58;85.87
80676;SHT30;70041;46.088;18.268;2023-12-20T08:53:15;2.72;85.86
80676;SHT30;70041;46.088;18.268;2023-12-20T08:55:42;2.78;85.75
80676;SHT30;70041;46.088;18.268;2023-12-20T08:58:07;2.82;86.33
80676;SHT30;70041;46.088;18.268;2023-12-20T09:00:34;2.92;85.91
80676;SHT30;70041;46.088;18.268;2023-12-20T09:03:00;2.92;85.75
80676;SHT30;70041;46.088;18.268;2023-12-20T09:05:26;2.99;84.91
80676;SHT30;70041;46.088;18.268;2023-12-20T09:07:51;3.13;84.11
80676;SHT30;70041;46.088;18.268;2023-12-20T09:10:17;3.30;84.87
80676;SHT30;70041;46.088;18.268;2023-12-20T09:12:51;3.41;84.09
80676;SHT30;70041;46.088;18.268;2023-12-20T09:15:16;3.47;83.16
80676;SHT30;70041;46.088;18.268;2023-12-20T09:17:42;3.61;83.23
80676;SHT30;70041;46.088;18.268;2023-12-20T09:20:09;3.70;82.26
80676;SHT30;70041;46.088;18.268;2023-12-20T09:22:34;3.68;82.92
80676;SHT30;70041;46.088;18.268;2023-12-20T09:25:00;3.84;82.05
80676;SHT30;70041;46.088;18.268;2023-12-20T09:27:27;3.71;82.32
80676;SHT30;70041;46.088;18.268;2023-12-20T09:29:53;3.74;83.07
80676;SHT30;70041;46.088;18.268;2023-12-20T09:32:19;3.85;82.72
80676;SHT30;70041;46.088;18.268;2023-12-20T09:34:46;3.92;83.54
80676;SHT30;70041;46.088;18.268;2023-12-20T09:37:13;3.94;82.62
80676;SHT30;70041;46.088;18.268;2023-12-20T09:39:38;4.21;82.96
80676;SHT30;70041;46.088;18.268;2023-12-20T09:42:05;4.28;83.06
80676;SHT30;70041;46.088;18.268;2023-12-20T09:44:31;4.43;82.58
80676;SHT30;70041;46.088;18.268;2023-12-20T09:46:58;4.63;81.51
80676;SHT30;70041;46.088;18.268;2023-12-20T09:49:27;5.00;78.97
80676;SHT30;70041;46.088;18.268;2023-12-20T09:51:54;5.13;79.09
80676;SHT30;70041;46.088;18.268;2023-12-20T09:54:20;5.18;78.89
80676;SHT30;70041;46.088;18.268;2023-12-20T09:56:46;5.13;80.14
80676;SHT30;70041;46.088;18.268;2023-12-20T09:59:13;5.15;78.76
80676;SHT30;70041;46.088;18.268;2023-12-20T10:01:40;5.13;78.85
80676;SHT30;70041;46.088;18.268;2023-12-20T10:04:07;5.27;78.87
80676;SHT30;70041;46.088;18.268;2023-12-20T10:06:43;5.41;77.72
80676;SHT30;70041;46.088;18.268;2023-12-20T10:09:10;5.49;77.39
80676;SHT30;70041;46.088;18.268;2023-12-20T10:11:37;5.48;79.18
80676;SHT30;70041;46.088;18.268;2023-12-20T10:14:04;5.75;79.07
80676;SHT30;70041;46.088;18.268;2023-12-20T10:16:30;6.06;79.92
80676;SHT30;70041;46.088;18.268;2023-12-20T10:18:56;6.10;78.24
80676;SHT30;70041;46.088;18.268;2023-12-20T10:21:25;6.20;78.68
80676;SHT30;70041;46.088;18.268;2023-12-20T10:23:57;6.44;77.11
80676;SHT30;70041;46.088;18.268;2023-12-20T10:26:24;6.55;74.66
80676;SHT30;70041;46.088;18.268;2023-12-20T10:28:51;6.72;73.69
80676;SHT30;70041;46.088;18.268;2023-12-20T10:31:31;6.74;72.34
80676;SHT30;70041;46.088;18.268;2023-12-20T10:34:01;6.58;73.67
80676;SHT30;70041;46.088;18.268;2023-12-20T10:36:31;6.58;74.20
80676;SHT30;70041;46.088;18.268;2023-12-20T10:38:57;6.67;74.55
80676;SHT30;70041;46.088;18.268;2023-12-20T10:41:32;6.84;73.93
80676;SHT30;70041;46.088;18.268;2023-12-20T10:44:02;7.01;73.94
80676;SHT30;70041;46.088;18.268;2023-12-20T10:46:28;7.18;73.34
80676;SHT30;70041;46.088;18.268;2023-12-20T10:48:56;7.20;74.35
80676;SHT30;70041;46.088;18.268;2023-12-20T10:51:22;7.32;74.63
80676;SHT30;70041;46.088;18.268;2023-12-20T10:53:50;7.50;73.46
80676;SHT30;70041;46.088;18.268;2023-12-20T10:56:17;7.63;71.80
80676;SHT30;70041;46.088;18.268;2023-12-20T10:58:43;7.57;70.83
80676;SHT30;70041;46.088;18.268;2023-12-20T11:01:13;7.42;71.13
80676;SHT30;70041;46.088;18.268;2023-12-20T11:03:46;7.44;71.68
80676;SHT30;70041;46.088;18.268;2023-12-20T11:06:23;7.47;72.35
80676;SHT30;70041;46.088;18.268;2023-12-20T11:09:17;7.60;70.73
80676;SHT30;70041;46.088;18.268;2023-12-20T11:11:51;7.34;69.67
80676;SHT30;70041;46.088;18.268;2023-12-20T11:14:29;6.88;70.56
80676;SHT30;70041;46.088;18.268;2023-12-20T11:17:23;6.42;71.58
80676;SHT30;70041;46.088;18.268;2023-12-20T11:22:19;6.50;73.97
80676;SHT30;70041;46.088;18.268;2023-12-20T11:24:45;6.50;72.81
80676;SHT30;70041;46.088;18.268;2023-12-20T11:27:13;6.47;72.95
80676;SHT30;70041;46.088;18.268;2023-12-20T11:29:38;6.64;73.72
80676;SHT30;70041;46.088;18.268;2023-12-20T11:34:51;7.10;73.00
80676;SHT30;70041;46.088;18.268;2023-12-20T11:37:19;7.27;71.12
80676;SHT30;70041;46.088;18.268;2023-12-20T11:39:45;7.24;71.81
80676;SHT30;70041;46.088;18.268;2023-12-20T11:42:19;7.44;71.82
80676;SHT30;70041;46.088;18.268;2023-12-20T11:44:45;7.80;71.92
80676;SHT30;70041;46.088;18.268;2023-12-20T11:47:12;8.05;71.37
80676;SHT30;70041;46.088;18.268;2023-12-20T11:49:39;8.48;68.05
80676;SHT30;70041;46.088;18.268;2023-12-20T11:52:05;8.81;68.22
80676;SHT30;70041;46.088;18.268;2023-12-20T11:54:30;9.16;65.02
80676;SHT30;70041;46.088;18.268;2023-12-20T11:56:56;9.20;66.35
80676;SHT30;70041;46.088;18.268;2023-12-20T11:59:21;9.72;65.89
80676;SHT30;70041;46.088;18.268;2023-12-20T12:01:50;10.36;63.08
80676;SHT30;70041;46.088;18.268;2023-12-20T12:04:16;10.65;61.91
80676;SHT30;70041;46.088;18.268;2023-12-20T12:06:43;10.81;60.19
80676;SHT30;70041;46.088;18.268;2023-12-20T12:09:09;11.02;59.02
80676;SHT30;70041;46.088;18.268;2023-12-20T12:11:34;11.22;57.61
80676;SHT30;70041;46.088;18.268;2023-12-20T12:14:00;11.62;57.34
80676;SHT30;70041;46.088;18.268;2023-12-20T12:16:26;12.08;54.96
80676;SHT30;70041;46.088;18.268;2023-12-20T12:18:56;12.51;54.13
80676;SHT30;70041;46.088;18.268;2023-12-20T12:21:22;12.47;54.01
80676;SHT30;70041;46.088;18.268;2023-12-20T12:23:48;12.21;55.10
80676;SHT30;70041;46.088;18.268;2023-12-20T12:26:13;12.01;55.28
80676;SHT30;70041;46.088;18.268;2023-12-20T12:28:42;11.80;56.39
80676;SHT30;70041;46.088;18.268;2023-12-20T12:31:08;11.73;55.83
80676;SHT30;70041;46.088;18.268;2023-12-20T12:33:34;11.70;56.13
80676;SHT30;70041;46.088;18.268;2023-12-20T12:36:00;11.82;56.52
80676;SHT30;70041;46.088;18.268;2023-12-20T12:38:26;11.77;55.41
80676;SHT30;70041;46.088;18.268;2023-12-20T12:40:54;11.79;55.61
80676;SHT30;70041;46.088;18.268;2023-12-20T12:43:20;11.94;55.75
80676;SHT30;70041;46.088;18.268;2023-12-20T12:45:48;11.84;55.84
80676;SHT30;70041;46.088;18.268;2023-12-20T12:48:14;11.55;56.52
80676;SHT30;70041;46.088;18.268;2023-12-20T12:50:40;11.42;56.17
80676;SHT30;70041;46.088;18.268;2023-12-20T12:53:05;11.07;56.91
80676;SHT30;70041;46.088;18.268;2023-12-20T12:55:30;11.34;56.67
80676;SHT30;70041;46.088;18.268;2023-12-20T12:57:56;11.47;56.83
80676;SHT30;70041;46.088;18.268;2023-12-20T13:00:21;11.83;55.03
80676;SHT30;70041;46.088;18.268;2023-12-20T13:02:47;12.01;53.97
80676;SHT30;70041;46.088;18.268;2023-12-20T13:05:12;11.77;55.40
80676;SHT30;70041;46.088;18.268;2023-12-20T13:07:38;11.43;56.32
80676;SHT30;70041;46.088;18.268;2023-12-20T13:10:05;11.18;57.13
80676;SHT30;70041;46.088;18.268;2023-12-20T13:12:31;10.97;57.47
80676;SHT30;70041;46.088;18.268;2023-12-20T13:14:57;10.61;59.04
80676;SHT30;70041;46.088;18.268;2023-12-20T13:17:23;10.37;59.71
80676;SHT30;70041;46.088;18.268;2023-12-20T13:19:48;10.34;59.67
80676;SHT30;70041;46.088;18.268;2023-12-20T13:22:15;10.26;59.78
80676;SHT30;70041;46.088;18.268;2023-12-20T13:24:40;10.14;60.18
80676;SHT30;70041;46.088;18.268;2023-12-20T13:27:06;10.00;60.88
80676;SHT30;70041;46.088;18.268;2023-12-20T13:29:31;10.02;61.73
80676;SHT30;70041;46.088;18.268;2023-12-20T13:31:57;10.02;61.65
80676;SHT30;70041;46.088;18.268;2023-12-20T13:34:22;9.88;61.57
80676;SHT30;70041;46.088;18.268;2023-12-20T13:36:48;9.79;62.43
80676;SHT30;70041;46.088;18.268;2023-12-20T13:39:15;9.90;64.00
80676;SHT30;70041;46.088;18.268;2023-12-20T13:41:42;10.40;60.73
80676;SHT30;70041;46.088;18.268;2023-12-20T13:44:07;10.59;59.66
80676;SHT30;70041;46.088;18.268;2023-12-20T13:46:33;10.43;61.64
80676;SHT30;70041;46.088;18.268;2023-12-20T13:48:58;10.14;61.17
80676;SHT30;70041;46.088;18.268;2023-12-20T13:51:23;9.93;61.79
80676;SHT30;70041;46.088;18.268;2023-12-20T13:53:49;9.85;62.72
80676;SHT30;70041;46.088;18.268;2023-12-20T13:56:15;9.96;61.79
80676;SHT30;70041;46.088;18.268;2023-12-20T13:58:40;9.81;62.70
80676;SHT30;70041;46.088;18.268;2023-12-20T14:01:07;9.68;62.85
80676;SHT30;70041;46.088;18.268;2023-12-20T14:03:33;9.59;63.84
80676;SHT30;70041;46.088;18.268;2023-12-20T14:05:59;9.52;62.80
80676;SHT30;70041;46.088;18.268;2023-12-20T14:08:25;9.59;64.22
80676;SHT30;70041;46.088;18.268;2023-12-20T14:10:52;9.41;64.43
80676;SHT30;70041;46.088;18.268;2023-12-20T14:13:17;9.28;63.59
80676;SHT30;70041;46.088;18.268;2023-12-20T14:15:43;9.00;64.75
80676;SHT30;70041;46.088;18.268;2023-12-20T14:18:08;8.97;64.81
80676;SHT30;70041;46.088;18.268;2023-12-20T14:20:34;8.93;64.76
80676;SHT30;70041;46.088;18.268;2023-12-20T14:23:03;8.84;65.31
80676;SHT30;70041;46.088;18.268;2023-12-20T14:25:29;8.84;66.05
80676;SHT30;70041;46.088;18.268;2023-12-20T14:27:54;8.77;66.18
80676;SHT30;70041;46.088;18.268;2023-12-20T14:30:20;8.76;65.95
80676;SHT30;70041;46.088;18.268;2023-12-20T14:32:45;8.57;66.90
80676;SHT30;70041;46.088;18.268;2023-12-20T14:35:13;8.56;67.32
80676;SHT30;70041;46.088;18.268;2023-12-20T14:37:38;8.50;67.33
80676;SHT30;70041;46.088;18.268;2023-12-20T14:40:08;8.44;66.42
80676;SHT30;70041;46.088;18.268;2023-12-20T14:42:40;8.32;67.88
80676;SHT30;70041;46.088;18.268;2023-12-20T14:45:06;8.22;68.58
80676;SHT30;70041;46.088;18.268;2023-12-20T14:47:32;8.06;68.11
80676;SHT30;70041;46.088;18.268;2023-12-20T14:49:57;7.93;68.62
80676;SHT30;70041;46.088;18.268;2023-12-20T14:52:23;7.85;69.05
80676;SHT30;70041;46.088;18.268;2023-12-20T14:54:48;7.85;69.29
80676;SHT30;70041;46.088;18.268;2023-12-20T14:57:14;7.95;69.20
80676;SHT30;70041;46.088;18.268;2023-12-20T14:59:39;7.98;68.44
80676;SHT30;70041;46.088;18.268;2023-12-20T15:02:05;7.81;68.44
80676;SHT30;70041;46.088;18.268;2023-12-20T15:04:33;7.74;68.67
80676;SHT30;70041;46.088;18.268;2023-12-20T15:06:59;7.70;69.23
80676;SHT30;70041;46.088;18.268;2023-12-20T15:09:26;7.54;71.66
80676;SHT30;70041;46.088;18.268;2023-12-20T15:11:52;7.19;73.34
80676;SHT30;70041;46.088;18.268;2023-12-20T15:14:18;6.88;74.67
80676;SHT30;70041;46.088;18.268;2023-12-20T15:16:47;6.82;74.34
80676;SHT30;70041;46.088;18.268;2023-12-20T15:19:13;6.87;74.98
80676;SHT30;70041;46.088;18.268;2023-12-20T15:21:39;6.67;75.70
80676;SHT30;70041;46.088;18.268;2023-12-20T15:24:11;6.21;77.08
80676;SHT30;70041;46.088;18.268;2023-12-20T15:26:42;6.09;77.94
80676;SHT30;70041;46.088;18.268;2023-12-20T15:29:08;5.97;78.21